Time;durP1;ratioP1;P1;durP2;ratioP2;P2;SDS_P1;SDS_P2;PMS_P1;PMS_P2;Temp;Humidity;BMP_temperature;BMP_pressure;BME280_temperature;BME280_humidity;BME280_pressure;Samples;Min_cycle;Max_cycle;Signal;HPM_P1;HPM_P2
2022/05/24 00:00:43;;;;;;;24.67;3.28;;;38.10;26.90;;;;;;5053387;28;20395;-59
2022/05/24 00:03:11;;;;;;;19.92;3.40;;;38.10;27.00;;;;;;5068216;28;20139;-62
2022/05/24 00:05:37;;;;;;;14.98;3.00;;;38.10;27.10;;;;;;5069868;28;20042;-60
2022/05/24 00:08:06;;;;;;;23.48;3.20;;;38.10;26.80;;;;;;5075635;28;20407;-59
2022/05/24 00:10:33;;;;;;;17.13;3.08;;;38.20;26.70;;;;;;5071059;28;20042;-60
2022/05/24 00:13:00;;;;;;;18.00;2.75;;;38.20;26.60;;;;;;5071110;28;20057;-61
2022/05/24 00:15:30;;;;;;;19.67;3.50;;;38.10;26.60;;;;;;5069842;28;20054;-59
2022/05/24 00:18:13;;;;;;;15.70;2.90;;;37.90;26.50;;;;;;5070084;28;20061;-59
2022/05/24 00:20:43;;;;;;;13.35;2.80;;;37.60;26.50;;;;;;5053343;28;20420;-59
2022/05/24 00:23:10;;;;;;;17.75;2.97;;;37.60;26.50;;;;;;5069749;28;20105;-59
2022/05/24 00:25:43;;;;;;;15.52;2.53;;;37.60;26.80;;;;;;5053284;28;20060;-59
2022/05/24 00:28:11;;;;;;;20.05;3.40;;;37.40;26.60;;;;;;5071362;28;20152;-60
2022/05/24 00:30:38;;;;;;;14.63;2.55;;;37.40;26.80;;;;;;5068548;28;20113;-61
2022/05/24 00:33:05;;;;;;;15.10;2.15;;;37.30;26.60;;;;;;5068785;28;20050;-60
2022/05/24 00:35:32;;;;;;;20.70;3.22;;;37.30;26.30;;;;;;5084608;28;20430;-60
2022/05/24 00:37:58;;;;;;;19.45;2.97;;;37.50;26.40;;;;;;5068942;28;20554;-59
2022/05/24 00:40:54;;;;;;;23.17;3.33;;;37.50;26.10;;;;;;5069027;28;20086;-60
2022/05/24 00:43:32;;;;;;;24.30;3.00;;;37.40;25.90;;;;;;5084249;28;20137;-60
2022/05/24 00:46:11;;;;;;;12.45;2.35;;;37.20;25.80;;;;;;5084574;28;20051;-61
2022/05/24 00:48:51;;;;;;;17.50;3.20;;;37.00;25.60;;;;;;5052081;28;20066;-60
2022/05/24 00:51:27;;;;;;;16.65;3.05;;;36.80;25.90;;;;;;5083813;28;20048;-59
2022/05/24 00:53:55;;;;;;;23.35;4.20;;;36.90;25.80;;;;;;5067724;28;20077;-60
2022/05/24 00:56:41;;;;;;;14.13;3.33;;;36.80;25.60;;;;;;5083431;28;20451;-61
2022/05/24 00:59:13;;;;;;;22.00;3.90;;;36.60;25.80;;;;;;5051947;28;20052;-59
2022/05/24 01:01:43;;;;;;;24.88;3.28;;;36.50;25.90;;;;;;5069430;28;20089;-60
2022/05/24 01:04:14;;;;;;;27.52;3.40;;;36.40;26.10;;;;;;5068733;28;20045;-60
2022/05/24 01:06:41;;;;;;;23.83;2.70;;;36.30;25.60;;;;;;5068584;28;20136;-60
2022/05/24 01:09:12;;;;;;;17.95;2.35;;;36.20;25.80;;;;;;5067118;28;20144;-59
2022/05/24 01:11:43;;;;;;;14.23;2.20;;;35.90;25.90;;;;;;5068896;28;20049;-60
2022/05/24 01:14:13;;;;;;;16.30;2.40;;;35.90;26.10;;;;;;5052458;28;20058;-62
2022/05/24 01:16:39;;;;;;;17.75;2.65;;;35.80;26.30;;;;;;5052059;28;20143;-60
2022/05/24 01:19:13;;;;;;;19.90;2.85;;;35.70;26.10;;;;;;5069262;28;20495;-60
2022/05/24 01:21:40;;;;;;;18.42;3.08;;;35.70;26.20;;;;;;5051222;28;20075;-61
2022/05/24 01:24:22;;;;;;;17.33;2.63;;;35.60;26.40;;;;;;5068825;28;20121;-59
2022/05/24 01:26:53;;;;;;;19.48;2.70;;;35.40;26.10;;;;;;5052931;28;20062;-61
2022/05/24 01:29:23;;;;;;;27.40;2.90;;;35.20;26.30;;;;;;5069141;28;20408;-60
2022/05/24 01:37:23;;;;;;;30.20;3.15;;;35.00;26.70;;;;;;5069830;28;20105;-61
2022/05/24 01:39:59;;;;;;;18.42;2.88;;;34.90;26.60;;;;;;5069051;28;20056;-61
2022/05/24 01:42:26;;;;;;;21.05;3.30;;;34.80;26.50;;;;;;5067332;28;20120;-60
2022/05/24 01:44:56;;;;;;;30.02;3.28;;;34.90;26.50;;;;;;5065733;28;20070;-57
2022/05/24 01:47:24;;;;;;;19.65;3.03;;;35.00;26.20;;;;;;5065724;28;20575;-60
2022/05/24 01:50:05;;;;;;;22.35;2.92;;;34.90;26.00;;;;;;5065663;28;20080;-58
2022/05/24 01:52:59;;;;;;;20.38;3.30;;;34.70;26.50;;;;;;5080669;28;20056;-60
2022/05/24 01:55:35;;;;;;;24.65;2.60;;;34.60;26.90;;;;;;5058123;28;20716;-58
2022/05/24 01:58:06;;;;;;;22.43;3.03;;;34.30;26.40;;;;;;5065542;28;20518;-60
2022/05/24 02:00:32;;;;;;;49.63;4.00;;;34.00;26.50;;;;;;5049766;28;20163;-61
2022/05/24 02:02:59;;;;;;;31.65;4.10;;;33.80;26.80;;;;;;5050083;28;20163;-61
2022/05/24 02:05:36;;;;;;;31.10;3.90;;;33.70;26.90;;;;;;5066999;28;20066;-60
2022/05/24 02:08:03;;;;;;;24.88;4.97;;;33.50;27.10;;;;;;5068031;28;20070;-60
2022/05/24 02:10:45;;;;;;;32.75;4.03;;;33.40;27.20;;;;;;5068741;28;20074;-59
2022/05/24 02:13:14;;;;;;;22.90;3.83;;;33.40;27.10;;;;;;5068608;28;20071;-60
2022/05/24 02:15:45;;;;;;;30.88;4.80;;;33.20;26.90;;;;;;5079364;28;20068;-60
2022/05/24 02:18:16;;;;;;;13.00;2.67;;;33.10;27.00;;;;;;5051175;28;20448;-63
2022/05/24 02:20:45;;;;;;;25.85;3.38;;;32.90;26.80;;;;;;5067353;28;20110;-62
2022/05/24 02:23:14;;;;;;;28.80;3.83;;;32.90;26.90;;;;;;5067209;28;20073;-60
2022/05/24 02:25:48;;;;;;;27.48;3.80;;;32.90;27.10;;;;;;5068347;28;20073;-61
2022/05/24 02:28:15;;;;;;;27.70;3.40;;;32.90;27.10;;;;;;5069439;28;20117;-59
2022/05/24 02:30:47;;;;;;;29.13;2.83;;;32.80;27.20;;;;;;5054029;28;20427;-59
2022/05/24 02:33:13;;;;;;;27.55;3.53;;;32.70;27.20;;;;;;5086725;28;20089;-60
2022/05/24 02:35:40;;;;;;;30.50;3.17;;;32.50;27.20;;;;;;5085640;28;20083;-61
2022/05/24 02:38:06;;;;;;;18.70;2.50;;;32.40;27.40;;;;;;5070806;28;20528;-59
2022/05/24 02:43:35;;;;;;;18.48;3.42;;;32.30;27.40;;;;;;5029776;28;20582;-61
2022/05/24 02:46:02;;;;;;;21.08;3.03;;;32.20;27.40;;;;;;5050696;28;20079;-58
2022/05/24 02:48:29;;;;;;;24.23;3.67;;;32.10;27.50;;;;;;5075255;28;20549;-60
2022/05/24 02:50:56;;;;;;;44.20;3.80;;;32.00;27.60;;;;;;5070737;28;20071;-60
2022/05/24 02:53:24;;;;;;;28.17;4.03;;;32.00;27.80;;;;;;5071566;28;20072;-59
2022/05/24 02:55:51;;;;;;;37.63;3.80;;;31.90;28.00;;;;;;5071941;28;20092;-59
2022/05/24 02:58:17;;;;;;;28.00;3.83;;;31.80;28.10;;;;;;5070378;28;20555;-59
2022/05/24 03:00:44;;;;;;;38.83;3.67;;;31.80;28.50;;;;;;5071953;28;20449;-61
2022/05/24 03:03:10;;;;;;;39.75;4.45;;;31.70;28.50;;;;;;5070039;28;20175;-60
2022/05/24 03:05:37;;;;;;;35.63;4.32;;;31.50;29.00;;;;;;5071931;28;20414;-61
2022/05/24 03:10:48;;;;;;;46.92;4.40;;;31.40;29.10;;;;;;5070699;28;20098;-60
2022/05/24 03:15:59;;;;;;;38.15;3.90;;;31.30;29.60;;;;;;5070842;28;20079;-61
2022/05/24 03:18:26;;;;;;;37.65;4.60;;;31.20;29.60;;;;;;5071880;28;20068;-60
2022/05/24 03:20:52;;;;;;;38.78;4.25;;;31.20;29.70;;;;;;5071152;28;20526;-59
2022/05/24 03:23:19;;;;;;;22.80;3.58;;;31.10;29.90;;;;;;5069467;28;20082;-61
2022/05/24 03:25:45;;;;;;;28.70;3.10;;;31.00;30.20;;;;;;5069094;28;20071;-60
2022/05/24 03:28:12;;;;;;;28.27;3.78;;;30.80;30.20;;;;;;5070761;28;20064;-62
2022/05/24 03:30:43;;;;;;;19.23;3.67;;;30.80;30.40;;;;;;5069197;28;20562;-60
2022/05/24 03:33:10;;;;;;;28.52;3.88;;;30.80;30.70;;;;;;5068172;28;20078;-56
2022/05/24 03:35:36;;;;;;;39.95;3.53;;;30.70;31.10;;;;;;5050429;28;20088;-58
2022/05/24 03:38:03;;;;;;;31.73;3.60;;;30.60;31.30;;;;;;5069052;28;20076;-60
2022/05/24 03:40:30;;;;;;;35.20;4.68;;;30.50;31.50;;;;;;5052580;28;20521;-60
2022/05/24 03:42:56;;;;;;;23.73;4.72;;;30.50;32.00;;;;;;5053369;28;20072;-59
2022/05/24 03:45:24;;;;;;;40.70;5.55;;;30.40;32.30;;;;;;5069385;28;21485;-59
2022/05/24 03:47:51;;;;;;;34.20;5.32;;;30.30;32.50;;;;;;5056815;28;20070;-59
2022/05/24 03:50:19;;;;;;;32.65;4.95;;;30.20;32.70;;;;;;5069522;28;20123;-59
2022/05/24 03:52:45;;;;;;;36.45;4.53;;;30.20;33.00;;;;;;5052589;28;20075;-59
2022/05/24 03:55:12;;;;;;;29.50;4.65;;;30.10;33.10;;;;;;5085340;28;20072;-59
2022/05/24 04:00:24;;;;;;;31.70;7.25;;;29.90;33.60;;;;;;5072869;28;20552;-60
2022/05/24 04:02:50;;;;;;;35.60;8.90;;;29.80;33.90;;;;;;5085998;28;20072;-60
2022/05/24 04:05:17;;;;;;;26.35;8.80;;;29.80;33.90;;;;;;5084707;28;20176;-60
2022/05/24 04:07:44;;;;;;;39.20;5.93;;;29.70;33.80;;;;;;5070445;28;20515;-61
2022/05/24 04:10:12;;;;;;;25.05;4.75;;;29.60;34.00;;;;;;5085551;28;20076;-60
2022/05/24 04:12:39;;;;;;;26.13;4.15;;;29.60;34.20;;;;;;5053052;28;20092;-60
2022/05/24 04:15:06;;;;;;;27.95;4.07;;;29.50;34.30;;;;;;5071771;28;20568;-61
2022/05/24 04:17:32;;;;;;;39.60;5.82;;;29.40;34.50;;;;;;5069990;28;20108;-60
2022/05/24 04:19:59;;;;;;;28.98;3.85;;;29.40;34.80;;;;;;5069219;28;20099;-59
2022/05/24 04:22:25;;;;;;;22.58;3.83;;;29.30;35.00;;;;;;5069826;28;20469;-61
2022/05/24 04:24:51;;;;;;;20.63;3.45;;;29.30;35.20;;;;;;5052675;28;21541;-60
2022/05/24 04:27:18;;;;;;;21.73;3.88;;;29.20;35.40;;;;;;5075430;28;20145;-60
2022/05/24 04:29:44;;;;;;;28.52;3.45;;;29.20;35.90;;;;;;5052454;28;20074;-59
2022/05/24 04:32:11;;;;;;;18.70;3.50;;;29.20;36.10;;;;;;5052402;28;20178;-62
2022/05/24 04:34:38;;;;;;;19.33;3.47;;;29.20;36.40;;;;;;5070898;28;20075;-60
2022/05/24 04:37:08;;;;;;;140.43;10.75;;;29.20;36.70;;;;;;5051900;28;20143;-59
2022/05/24 04:39:35;;;;;;;123.05;9.25;;;29.00;36.90;;;;;;5070272;28;20072;-59
2022/05/24 04:42:21;;;;;;;21.40;3.40;;;28.90;37.30;;;;;;5068747;28;20120;-62
2022/05/24 04:44:51;;;;;;;27.92;4.28;;;28.80;37.70;;;;;;5069935;28;20175;-62
2022/05/24 04:47:19;;;;;;;38.80;3.95;;;28.80;38.00;;;;;;5068802;28;20075;-61
2022/05/24 04:49:54;;;;;;;27.08;4.35;;;28.70;38.20;;;;;;5068667;28;20088;-60
2022/05/24 04:52:23;;;;;;;31.00;4.57;;;28.80;38.50;;;;;;5068477;28;20156;-61
2022/05/24 04:54:51;;;;;;;74.55;5.93;;;28.70;38.80;;;;;;5052607;28;20103;-60
2022/05/24 04:57:18;;;;;;;34.55;4.85;;;28.60;39.10;;;;;;5071945;28;20072;-62
2022/05/24 04:59:44;;;;;;;27.23;4.32;;;28.60;39.60;;;;;;5068359;28;20084;-61
2022/05/24 05:02:11;;;;;;;114.60;8.63;;;28.50;40.00;;;;;;5070233;28;20087;-61
2022/05/24 05:04:38;;;;;;;85.45;6.07;;;28.50;40.30;;;;;;5071909;28;20088;-61
2022/05/24 05:07:05;;;;;;;32.33;4.40;;;28.50;40.70;;;;;;5071132;28;20437;-59
2022/05/24 05:09:35;;;;;;;55.67;6.72;;;28.30;40.90;;;;;;5052078;28;20069;-60
2022/05/24 05:12:07;;;;;;;47.88;6.03;;;28.20;41.10;;;;;;5069104;28;20084;-61
2022/05/24 05:14:35;;;;;;;102.80;8.88;;;28.10;41.50;;;;;;5068266;28;20075;-61
2022/05/24 05:17:02;;;;;;;33.00;4.68;;;28.00;41.90;;;;;;5068110;28;20068;-62
2022/05/24 05:19:29;;;;;;;115.75;8.10;;;28.00;42.10;;;;;;5067953;28;20110;-63
2022/05/24 05:21:56;;;;;;;21.38;3.90;;;28.00;42.40;;;;;;5067455;28;20091;-59
2022/05/24 05:24:23;;;;;;;25.13;3.88;;;27.90;42.70;;;;;;5067165;28;20075;-60
2022/05/24 05:26:49;;;;;;;17.65;3.95;;;28.00;43.30;;;;;;5069021;28;20153;-60
2022/05/24 05:31:16;;;;;;;24.17;4.22;;;27.90;43.60;;;;;;5083394;28;20071;-60
2022/05/24 05:32:02;;;;;;;22.60;3.38;;;27.70;43.80;;;;;;5068657;28;20064;-61
2022/05/24 05:34:29;;;;;;;13.82;3.58;;;27.70;44.30;;;;;;5067868;28;20096;-60
2022/05/24 05:36:55;;;;;;;34.63;4.40;;;27.70;44.60;;;;;;5066677;28;20082;-62
2022/05/24 05:39:21;;;;;;;17.10;3.67;;;27.70;45.00;;;;;;5082613;28;20482;-60
2022/05/24 05:41:48;;;;;;;32.85;4.07;;;27.60;45.40;;;;;;5068522;28;20600;-59
2022/05/24 05:44:14;;;;;;;22.38;3.78;;;27.40;46.10;;;;;;5066873;28;20075;-59
2022/05/24 05:46:41;;;;;;;38.75;4.18;;;27.40;46.40;;;;;;5067092;28;20068;-61
2022/05/24 05:49:09;;;;;;;27.05;3.90;;;27.40;46.90;;;;;;5067298;28;20099;-60
2022/05/24 05:51:36;;;;;;;19.02;3.47;;;27.20;47.30;;;;;;5066214;28;20406;-59
2022/05/24 05:54:02;;;;;;;19.85;3.60;;;27.20;47.50;;;;;;5066803;28;20075;-59
2022/05/24 05:56:29;;;;;;;16.27;3.38;;;27.20;47.90;;;;;;5067182;28;20739;-59
2022/05/24 05:58:55;;;;;;;23.77;3.42;;;27.10;48.20;;;;;;5069640;28;20080;-60
2022/05/24 06:01:29;;;;;;;17.60;3.13;;;27.10;48.70;;;;;;5067001;28;20087;-60
2022/05/24 06:03:57;;;;;;;23.20;3.65;;;27.00;49.30;;;;;;5072117;28;20128;-61
2022/05/24 06:06:26;;;;;;;16.73;2.75;;;26.90;50.00;;;;;;5070867;28;20074;-60
2022/05/24 06:08:52;;;;;;;24.25;3.42;;;26.80;50.60;;;;;;5070685;28;20068;-60
2022/05/24 06:11:18;;;;;;;23.92;3.25;;;26.80;51.00;;;;;;5054086;28;20076;-60
2022/05/24 06:13:45;;;;;;;18.83;3.20;;;26.90;51.10;;;;;;5069254;28;20076;-61
2022/05/24 06:16:11;;;;;;;12.88;3.47;;;26.90;51.10;;;;;;5071143;28;20131;-60
2022/05/24 06:18:38;;;;;;;17.27;3.38;;;26.90;51.10;;;;;;5054333;28;20580;-60
2022/05/24 06:21:04;;;;;;;14.60;2.95;;;26.90;51.40;;;;;;5071784;28;20092;-60
2022/05/24 06:23:31;;;;;;;21.48;3.03;;;26.80;51.40;;;;;;5072154;28;20095;-62
2022/05/24 06:25:58;;;;;;;12.48;2.80;;;26.70;51.70;;;;;;5070625;28;20550;-62
2022/05/24 06:28:26;;;;;;;16.98;3.88;;;26.60;51.90;;;;;;5070523;28;20094;-62
2022/05/24 06:30:53;;;;;;;17.95;3.15;;;26.60;52.00;;;;;;5071112;28;20092;-61
2022/05/24 06:33:19;;;;;;;14.73;3.55;;;26.50;52.30;;;;;;5070820;28;20079;-62
2022/05/24 06:35:46;;;;;;;11.40;3.00;;;26.40;52.50;;;;;;5070169;28;20100;-61
2022/05/24 06:38:12;;;;;;;13.45;3.38;;;26.40;52.80;;;;;;5070349;28;20080;-60
2022/05/24 06:40:38;;;;;;;19.48;3.40;;;26.30;53.10;;;;;;5070179;28;20550;-59
2022/05/24 06:43:05;;;;;;;12.30;3.15;;;26.40;53.40;;;;;;5085805;28;20175;-60
2022/05/24 06:45:32;;;;;;;15.45;3.47;;;26.40;53.50;;;;;;5070766;28;20071;-60
2022/05/24 06:47:58;;;;;;;15.45;3.33;;;26.40;53.70;;;;;;5070148;28;20084;-61
2022/05/24 06:50:25;;;;;;;14.73;3.00;;;26.40;54.00;;;;;;5076881;28;20075;-60
2022/05/24 06:52:56;;;;;;;15.18;3.42;;;26.40;54.10;;;;;;5071256;28;20080;-60
2022/05/24 06:55:23;;;;;;;13.07;3.42;;;26.40;54.50;;;;;;5053332;28;20158;-61
2022/05/24 06:57:51;;;;;;;16.85;3.58;;;26.30;54.90;;;;;;5070026;28;20076;-60
2022/05/24 07:03:10;;;;;;;15.95;3.67;;;26.20;55.70;;;;;;5071526;28;20167;-60
2022/05/24 07:05:37;;;;;;;14.73;3.35;;;26.10;56.50;;;;;;5069646;28;20615;-60
2022/05/24 07:08:05;;;;;;;18.45;3.50;;;26.10;57.00;;;;;;5071007;28;20083;-60
2022/05/24 07:10:33;;;;;;;20.55;3.40;;;26.00;58.10;;;;;;5069179;28;20072;-60
2022/05/24 07:13:11;;;;;;;15.68;3.63;;;26.00;58.00;;;;;;5069753;28;20071;-60
2022/05/24 07:15:38;;;;;;;18.33;3.30;;;25.90;58.30;;;;;;5084657;28;20182;-60
2022/05/24 07:18:05;;;;;;;15.05;3.40;;;25.90;58.80;;;;;;5069921;28;21411;-59
2022/05/24 07:20:34;;;;;;;22.20;3.80;;;25.80;59.30;;;;;;5071837;28;20452;-60
2022/05/24 07:23:11;;;;;;;13.75;3.13;;;25.80;59.80;;;;;;5070649;28;20130;-59
2022/05/24 07:25:40;;;;;;;13.57;3.13;;;25.70;60.00;;;;;;5069556;28;20092;-60
2022/05/24 07:28:07;;;;;;;19.42;3.30;;;25.70;60.30;;;;;;5067021;28;20447;-62
2022/05/24 07:30:34;;;;;;;15.52;3.20;;;25.70;60.80;;;;;;5068451;28;20106;-59
2022/05/24 07:33:00;;;;;;;15.23;3.20;;;25.70;61.10;;;;;;5052990;28;20480;-61
2022/05/24 07:35:27;;;;;;;10.20;2.65;;;25.60;61.50;;;;;;5069283;28;20084;-60
2022/05/24 07:37:54;;;;;;;19.42;2.95;;;25.60;61.70;;;;;;5052362;28;20170;-59
2022/05/24 07:45:57;;;;;;;15.18;3.03;;;25.50;62.70;;;;;;5070697;28;20199;-60
2022/05/24 07:48:25;;;;;;;17.88;3.90;;;25.50;62.90;;;;;;5085955;28;20175;-59
2022/05/24 07:50:51;;;;;;;18.48;3.78;;;25.40;63.10;;;;;;5087280;28;20099;-59
2022/05/24 07:53:18;;;;;;;14.93;3.40;;;25.40;63.60;;;;;;5069835;28;20125;-62
2022/05/24 07:55:44;;;;;;;16.20;3.63;;;25.40;63.70;;;;;;5071091;28;20111;-60
2022/05/24 07:58:12;;;;;;;9.05;3.10;;;25.30;64.20;;;;;;5068249;28;20607;-59
2022/05/24 08:00:39;;;;;;;15.98;3.78;;;25.20;64.50;;;;;;5069695;28;20103;-65
2022/05/24 08:03:06;;;;;;;13.23;3.95;;;25.20;64.80;;;;;;5084437;28;20072;-61
2022/05/24 08:05:34;;;;;;;13.95;3.78;;;25.20;65.10;;;;;;5070030;28;20081;-60
2022/05/24 08:08:01;;;;;;;18.58;3.85;;;25.10;65.40;;;;;;5069355;28;20076;-59
2022/05/24 08:10:29;;;;;;;11.40;3.38;;;25.10;65.60;;;;;;5067952;28;20095;-58
2022/05/24 08:12:57;;;;;;;17.27;3.72;;;25.20;65.90;;;;;;5068110;28;20231;-60
2022/05/24 08:15:25;;;;;;;19.42;3.72;;;25.10;65.90;;;;;;5068448;28;20080;-62
2022/05/24 08:17:52;;;;;;;14.05;3.20;;;25.00;66.40;;;;;;5068459;28;20522;-59
2022/05/24 08:20:19;;;;;;;17.35;2.97;;;25.00;66.90;;;;;;5069544;28;20096;-60
2022/05/24 08:22:46;;;;;;;15.50;3.58;;;25.10;66.90;;;;;;5068434;28;20073;-60
2022/05/24 08:25:13;;;;;;;18.67;3.85;;;25.10;67.00;;;;;;5067179;28;20071;-61
2022/05/24 08:27:40;;;;;;;19.30;4.10;;;25.10;67.30;;;;;;5051756;28;20164;-61
2022/05/24 08:30:08;;;;;;;24.52;3.92;;;25.00;67.80;;;;;;5068889;28;20073;-60
2022/05/24 08:32:35;;;;;;;13.73;3.78;;;25.00;67.90;;;;;;5068023;28;20077;-60
2022/05/24 08:35:02;;;;;;;16.92;3.35;;;24.90;68.50;;;;;;5068117;28;20096;-60
2022/05/24 08:37:29;;;;;;;14.38;3.58;;;24.90;68.80;;;;;;5069435;28;20075;-61
2022/05/24 08:39:57;;;;;;;12.18;3.40;;;24.90;69.20;;;;;;5068807;28;20119;-59
2022/05/24 08:42:40;;;;;;;14.13;3.40;;;24.90;69.40;;;;;;5051526;28;20084;-59
2022/05/24 08:48:26;;;;;;;11.90;2.42;;;24.70;70.10;;;;;;5068322;28;20132;-58
2022/05/24 08:51:16;;;;;;;18.55;2.95;;;24.80;70.10;;;;;;5054413;28;20173;-60
2022/05/24 08:53:46;;;;;;;13.77;3.38;;;24.70;71.50;;;;;;5060641;28;20247;-61
2022/05/24 08:56:38;;;;;;;19.20;3.17;;;24.60;72.20;;;;;;5067872;28;20159;-62
2022/05/24 08:59:33;;;;;;;12.30;2.92;;;24.60;72.60;;;;;;5067419;28;20080;-60
2022/05/24 09:02:02;;;;;;;9.38;2.85;;;24.60;73.10;;;;;;5068224;28;20115;-59
2022/05/24 09:04:30;;;;;;;13.25;2.40;;;24.60;73.00;;;;;;5067460;28;20141;-62
2022/05/24 09:07:27;;;;;;;11.13;2.33;;;24.50;72.80;;;;;;5067921;28;20076;-60
2022/05/24 09:10:20;;;;;;;9.98;2.30;;;24.30;72.90;;;;;;5067332;28;20123;-58
2022/05/24 09:13:08;;;;;;;12.43;2.60;;;24.10;73.50;;;;;;5067286;28;20099;-62
2022/05/24 09:15:49;;;;;;;11.90;2.88;;;24.10;74.30;;;;;;5067905;28;20535;-59
2022/05/24 09:18:31;;;;;;;12.00;2.65;;;24.00;74.70;;;;;;5050026;28;20109;-60
2022/05/24 09:20:58;;;;;;;12.23;2.95;;;24.00;74.80;;;;;;5067304;28;20088;-59
2022/05/24 09:23:39;;;;;;;6.07;2.10;;;24.00;74.80;;;;;;5066587;28;20089;-59
2022/05/24 09:26:10;;;;;;;8.55;2.22;;;24.00;75.20;;;;;;5050479;28;20101;-60
2022/05/24 09:29:10;;;;;;;23.70;3.22;;;24.00;75.30;;;;;;5067393;28;20073;-60
2022/05/24 09:31:43;;;;;;;15.65;2.70;;;23.80;75.40;;;;;;5058173;28;20091;-58
2022/05/24 09:34:31;;;;;;;12.77;2.83;;;23.70;76.10;;;;;;5067797;28;20164;-60
2022/05/24 09:37:02;;;;;;;14.75;2.67;;;23.60;76.70;;;;;;5049290;28;20105;-60
2022/05/24 09:39:54;;;;;;;14.13;2.92;;;23.60;76.90;;;;;;5080000;28;20084;-60
2022/05/24 09:42:30;;;;;;;12.63;2.80;;;23.60;77.40;;;;;;5067794;28;20252;-60
2022/05/24 09:45:16;;;;;;;11.82;2.70;;;23.50;77.60;;;;;;5050777;28;20082;-59
2022/05/24 09:47:43;;;;;;;15.55;2.55;;;23.50;78.20;;;;;;5083090;28;20086;-59
2022/05/24 09:50:18;;;;;;;12.75;2.90;;;23.50;78.40;;;;;;5068383;28;20081;-60
2022/05/24 09:53:03;;;;;;;17.98;2.60;;;23.30;79.40;;;;;;5066838;28;20063;-60
2022/05/24 09:55:45;;;;;;;11.65;2.80;;;23.30;80.90;;;;;;5082064;28;20135;-61
2022/05/24 09:58:30;;;;;;;11.63;2.75;;;23.30;80.90;;;;;;5082167;28;20162;-59
2022/05/24 10:01:09;;;;;;;10.00;2.58;;;23.30;81.10;;;;;;5066643;28;20180;-59
2022/05/24 10:03:48;;;;;;;10.38;2.40;;;23.30;81.60;;;;;;5082709;28;20073;-57
2022/05/24 10:06:30;;;;;;;13.00;2.70;;;23.30;81.90;;;;;;5067376;28;20069;-59
2022/05/24 10:09:01;;;;;;;7.68;2.10;;;23.30;82.10;;;;;;5049955;28;20073;-58
2022/05/24 10:11:40;;;;;;;13.65;2.88;;;23.20;82.50;;;;;;5066623;28;20073;-59
2022/05/24 10:14:34;;;;;;;10.07;2.97;;;23.10;84.10;;;;;;5068188;28;20164;-58
2022/05/24 10:17:10;;;;;;;11.88;3.03;;;23.10;83.60;;;;;;5066216;28;20246;-58
2022/05/24 10:19:46;;;;;;;13.07;2.97;;;23.00;84.10;;;;;;5050543;28;20584;-59
2022/05/24 10:22:29;;;;;;;11.45;3.33;;;23.10;84.10;;;;;;5082668;28;20095;-59
2022/05/24 10:25:22;;;;;;;9.27;2.70;;;23.00;83.60;;;;;;5066855;28;20522;-60
2022/05/24 10:28:09;;;;;;;15.25;3.22;;;23.00;83.20;;;;;;5066864;28;20127;-60
2022/05/24 10:30:47;;;;;;;11.65;2.97;;;22.90;82.90;;;;;;5066000;28;20076;-59
2022/05/24 10:39:39;;;;;;;14.82;3.05;;;22.80;79.80;;;;;;5066471;28;20160;-60
2022/05/24 10:42:29;;;;;;;10.63;2.42;;;22.70;78.00;;;;;;5081344;28;20116;-60
2022/05/24 10:45:05;;;;;;;20.95;3.08;;;22.70;76.40;;;;;;5067004;28;20597;-58
2022/05/24 10:48:04;;;;;;;16.93;3.27;;;22.70;74.20;;;;;;5066120;28;20522;-59
2022/05/24 10:50:53;;;;;;;23.73;4.10;;;22.60;72.30;;;;;;5070128;28;20442;-57
2022/05/24 10:53:47;;;;;;;11.27;2.60;;;22.50;70.60;;;;;;5069925;28;20077;-57
2022/05/24 10:56:28;;;;;;;26.08;3.28;;;22.50;69.90;;;;;;5085399;28;20104;-59
2022/05/24 10:59:13;;;;;;;13.80;3.10;;;22.40;69.60;;;;;;5084983;28;20093;-59
2022/05/24 11:01:45;;;;;;;14.95;3.85;;;22.50;70.00;;;;;;5055379;28;20138;-57
2022/05/24 11:04:20;;;;;;;15.75;4.00;;;22.60;68.70;;;;;;5052489;28;20419;-59
2022/05/24 11:07:14;;;;;;;13.07;3.25;;;22.50;67.30;;;;;;5072750;28;20089;-60
2022/05/24 11:10:19;;;;;;;12.27;3.67;;;22.40;66.90;;;;;;5069125;28;20076;-60
2022/05/24 11:12:52;;;;;;;11.15;3.75;;;22.40;65.80;;;;;;5046243;28;20542;-60
2022/05/24 11:15:22;;;;;;;14.18;3.78;;;22.40;65.30;;;;;;5071144;28;20089;-60
2022/05/24 11:17:49;;;;;;;10.07;2.83;;;22.40;64.50;;;;;;5083133;28;20083;-61
2022/05/24 11:20:22;;;;;;;11.77;3.00;;;22.50;64.00;;;;;;5070317;28;20077;-61
2022/05/24 11:23:16;;;;;;;15.00;3.10;;;22.50;63.90;;;;;;5069253;28;20074;-60
2022/05/24 11:25:49;;;;;;;10.48;3.30;;;22.60;63.70;;;;;;5081593;28;20077;-60
2022/05/24 11:28:24;;;;;;;14.25;3.13;;;22.50;63.70;;;;;;5068574;28;20069;-60
2022/05/24 11:30:52;;;;;;;17.98;3.35;;;22.50;63.90;;;;;;5053411;28;20777;-59
2022/05/24 11:33:39;;;;;;;14.40;4.93;;;22.50;64.30;;;;;;5067667;28;20519;-59
2022/05/24 11:36:38;;;;;;;13.30;4.85;;;22.50;65.00;;;;;;5054742;28;20083;-59
2022/05/24 11:39:23;;;;;;;16.75;4.88;;;22.50;65.20;;;;;;5066497;28;20077;-60
2022/05/24 11:42:10;;;;;;;16.40;4.95;;;22.40;65.50;;;;;;5085330;28;20108;-61
2022/05/24 11:44:37;;;;;;;17.55;5.38;;;22.40;66.00;;;;;;5070887;28;20085;-57
2022/05/24 11:47:04;;;;;;;15.60;4.85;;;22.40;66.70;;;;;;5068171;28;20077;-59
2022/05/24 11:49:31;;;;;;;11.85;4.78;;;22.40;66.50;;;;;;5052504;28;20514;-59
2022/05/24 11:51:59;;;;;;;19.48;5.25;;;22.30;66.80;;;;;;5070128;28;20168;-62
2022/05/24 11:54:27;;;;;;;17.02;5.03;;;22.30;66.80;;;;;;5084301;28;20083;-58
2022/05/24 11:57:14;;;;;;;454.20;23.27;;;22.20;66.70;;;;;;5085934;28;20103;-58
2022/05/24 11:59:40;;;;;;;;;;;22.30;66.50;;;;;;5069087;28;20132;-58
2022/05/24 12:02:24;;;;;;;13.77;5.38;;;22.20;66.50;;;;;;5084955;28;20473;-59
2022/05/24 12:08:36;;;;;;;11.00;3.80;;;22.20;66.40;;;;;;5069812;28;20118;-59
2022/05/24 12:11:05;;;;;;;16.67;4.13;;;22.20;66.30;;;;;;5069326;28;20730;-60
2022/05/24 12:13:38;;;;;;;13.32;4.10;;;22.20;66.40;;;;;;5084662;28;20101;-60
2022/05/24 12:16:55;;;;;;;19.08;6.65;;;22.20;66.30;;;;;;5068634;28;20085;-60
2022/05/24 12:19:42;;;;;;;33.80;16.42;;;22.10;66.60;;;;;;5024267;28;20155;-59
2022/05/24 12:22:18;;;;;;;42.28;19.35;;;22.10;66.40;;;;;;5070251;28;20107;-60
2022/05/24 12:24:48;;;;;;;35.20;15.68;;;22.00;66.40;;;;;;5070039;28;20068;-57
2022/05/24 12:27:33;;;;;;;40.90;14.88;;;22.00;66.80;;;;;;5067618;28;20179;-59
2022/05/24 12:30:20;;;;;;;24.35;11.55;;;22.10;66.70;;;;;;5083475;28;20138;-60
2022/05/24 12:32:47;;;;;;;21.73;10.70;;;22.10;66.20;;;;;;5067743;28;20071;-60
2022/05/24 12:35:17;;;;;;;29.60;9.57;;;22.20;66.10;;;;;;5068103;28;20089;-57
2022/05/24 12:38:01;;;;;;;19.63;7.20;;;22.10;66.10;;;;;;5054402;28;20084;-58
2022/05/24 12:40:32;;;;;;;22.80;6.50;;;22.10;65.70;;;;;;5083616;28;20140;-59
2022/05/24 12:43:02;;;;;;;15.18;5.70;;;22.10;65.70;;;;;;5077930;28;20101;-62
2022/05/24 12:45:38;;;;;;;22.48;5.85;;;22.10;65.70;;;;;;5068339;28;20498;-59
2022/05/24 12:48:18;;;;;;;18.17;4.15;;;22.10;65.50;;;;;;5068045;28;20079;-60
2022/05/24 12:50:45;;;;;;;13.90;3.88;;;22.20;65.10;;;;;;5053240;28;20081;-62
2022/05/24 12:53:20;;;;;;;16.67;3.42;;;22.10;64.90;;;;;;5067566;28;20073;-60
2022/05/24 12:55:56;;;;;;;17.60;3.58;;;22.10;64.70;;;;;;5066705;28;20079;-60
2022/05/24 12:58:31;;;;;;;20.38;3.30;;;22.10;64.80;;;;;;5067045;28;20145;-59
2022/05/24 13:01:44;;;;;;;18.55;3.50;;;22.10;65.10;;;;;;5069166;28;20098;-61
2022/05/24 13:04:24;;;;;;;23.75;3.85;;;22.10;64.80;;;;;;5064592;28;20088;-60
2022/05/24 13:06:51;;;;;;;19.92;4.13;;;22.10;64.80;;;;;;5067253;28;20088;-59
2022/05/24 13:09:25;;;;;;;17.40;4.05;;;22.10;65.00;;;;;;5064800;28;20076;-58
2022/05/24 13:11:53;;;;;;;21.98;4.05;;;22.10;66.10;;;;;;5079929;28;20104;-59
2022/05/24 13:14:38;;;;;;;25.40;4.35;;;22.10;65.00;;;;;;5084073;28;20088;-58
2022/05/24 13:17:07;;;;;;;22.13;4.10;;;22.10;64.90;;;;;;5068098;28;20129;-59
2022/05/24 13:20:09;;;;;;;21.05;4.90;;;22.10;65.30;;;;;;5067785;28;20073;-57
2022/05/24 13:22:43;;;;;;;19.73;4.40;;;22.10;65.60;;;;;;5024339;28;20629;-62
2022/05/24 13:25:51;;;;;;;31.15;5.75;;;22.20;65.60;;;;;;5041915;28;20096;-59
2022/05/24 13:28:35;;;;;;;25.83;5.18;;;22.20;65.90;;;;;;5024281;28;20567;-57
2022/05/24 13:34:24;;;;;;;24.67;5.38;;;22.20;67.00;;;;;;5040339;28;20119;-59
2022/05/24 13:36:59;;;;;;;26.20;5.88;;;22.30;67.20;;;;;;5041160;28;20528;-56
2022/05/24 13:39:44;;;;;;;34.88;5.43;;;22.30;67.30;;;;;;5026005;28;20468;-57
2022/05/24 13:42:25;;;;;;;30.42;6.32;;;22.30;68.00;;;;;;5039519;28;20627;-57
2022/05/24 13:45:14;;;;;;;25.52;5.97;;;22.30;68.90;;;;;;5024009;28;20088;-57